sensor_id;sensor_type;location;lat;lon;timestamp;temperature;humidity
9410;DHT22;4744;52.576;13.568;2023-08-12T00:01:35;17.00;1.00
9410;DHT22;4744;52.576;13.568;2023-08-12T00:04:02;16.90;1.00
9410;DHT22;4744;52.576;13.568;2023-08-12T00:06:29;16.90;1.00
9410;DHT22;4744;52.576;13.568;2023-08-12T00:08:55;16.90;1.00
9410;DHT22;4744;52.576;13.568;2023-08-12T00:11:22;16.90;1.00
9410;DHT22;4744;52.576;13.568;2023-08-12T00:13:49;16.80;1.00
9410;DHT22;4744;52.576;13.568;2023-08-12T00:16:16;16.80;1.00
9410;DHT22;4744;52.576;13.568;2023-08-12T00:18:44;16.80;1.00
9410;DHT22;4744;52.576;13.568;2023-08-12T00:21:11;16.80;1.00
9410;DHT22;4744;52.576;13.568;2023-08-12T00:23:39;16.80;1.00
9410;DHT22;4744;52.576;13.568;2023-08-12T00:26:07;16.80;1.00
9410;DHT22;4744;52.576;13.568;2023-08-12T00:28:33;16.80;1.00
9410;DHT22;4744;52.576;13.568;2023-08-12T00:31:00;16.80;1.00
9410;DHT22;4744;52.576;13.568;2023-08-12T00:33:27;16.80;1.00
9410;DHT22;4744;52.576;13.568;2023-08-12T00:35:55;16.80;1.00
9410;DHT22;4744;52.576;13.568;2023-08-12T00:38:22;16.70;1.00
9410;DHT22;4744;52.576;13.568;2023-08-12T00:40:49;16.80;1.00
9410;DHT22;4744;52.576;13.568;2023-08-12T00:43:16;16.80;1.00
9410;DHT22;4744;52.576;13.568;2023-08-12T00:45:44;16.80;1.00
9410;DHT22;4744;52.576;13.568;2023-08-12T00:48:11;16.70;1.00
9410;DHT22;4744;52.576;13.568;2023-08-12T00:50:39;16.80;1.00
9410;DHT22;4744;52.576;13.568;2023-08-12T00:53:09;16.70;1.00
9410;DHT22;4744;52.576;13.568;2023-08-12T00:55:36;16.70;1.00
9410;DHT22;4744;52.576;13.568;2023-08-12T00:58:04;16.70;1.00
9410;DHT22;4744;52.576;13.568;2023-08-12T01:00:33;16.70;1.00
9410;DHT22;4744;52.576;13.568;2023-08-12T01:03:00;16.70;1.00
9410;DHT22;4744;52.576;13.568;2023-08-12T01:05:28;16.70;1.00
9410;DHT22;4744;52.576;13.568;2023-08-12T01:07:56;16.60;1.00
9410;DHT22;4744;52.576;13.568;2023-08-12T01:10:32;16.60;1.00
9410;DHT22;4744;52.576;13.568;2023-08-12T01:13:07;16.60;1.00
9410;DHT22;4744;52.576;13.568;2023-08-12T01:15:38;16.60;1.00
9410;DHT22;4744;52.576;13.568;2023-08-12T01:18:06;16.60;1.00
9410;DHT22;4744;52.576;13.568;2023-08-12T01:20:35;16.60;1.00
9410;DHT22;4744;52.576;13.568;2023-08-12T01:23:11;16.60;1.00
9410;DHT22;4744;52.576;13.568;2023-08-12T01:25:39;16.50;1.00
9410;DHT22;4744;52.576;13.568;2023-08-12T01:28:06;16.50;1.00
9410;DHT22;4744;52.576;13.568;2023-08-12T01:30:35;16.50;1.00
9410;DHT22;4744;52.576;13.568;2023-08-12T01:33:09;16.50;1.00
9410;DHT22;4744;52.576;13.568;2023-08-12T01:35:41;16.40;1.00
9410;DHT22;4744;52.576;13.568;2023-08-12T01:38:11;16.40;1.00
9410;DHT22;4744;52.576;13.568;2023-08-12T01:40:39;16.40;1.00
9410;DHT22;4744;52.576;13.568;2023-08-12T01:43:06;16.40;1.00
9410;DHT22;4744;52.576;13.568;2023-08-12T01:45:34;16.30;1.00
9410;DHT22;4744;52.576;13.568;2023-08-12T01:48:01;16.30;1.00
9410;DHT22;4744;52.576;13.568;2023-08-12T01:50:28;16.30;1.00
9410;DHT22;4744;52.576;13.568;2023-08-12T01:52:55;16.30;1.00
9410;DHT22;4744;52.576;13.568;2023-08-12T01:55:25;16.30;1.00
9410;DHT22;4744;52.576;13.568;2023-08-12T01:57:52;16.30;1.00
9410;DHT22;4744;52.576;13.568;2023-08-12T02:00:19;16.30;1.00
9410;DHT22;4744;52.576;13.568;2023-08-12T02:02:46;16.30;1.00
9410;DHT22;4744;52.576;13.568;2023-08-12T02:05:14;16.30;1.00
9410;DHT22;4744;52.576;13.568;2023-08-12T02:07:41;16.20;1.00
9410;DHT22;4744;52.576;13.568;2023-08-12T02:10:09;16.20;1.00
9410;DHT22;4744;52.576;13.568;2023-08-12T02:12:37;16.20;1.00
9410;DHT22;4744;52.576;13.568;2023-08-12T02:15:05;16.20;1.00
9410;DHT22;4744;52.576;13.568;2023-08-12T02:17:32;16.20;1.00
9410;DHT22;4744;52.576;13.568;2023-08-12T02:19:59;16.20;1.00
9410;DHT22;4744;52.576;13.568;2023-08-12T02:22:26;16.10;1.00
9410;DHT22;4744;52.576;13.568;2023-08-12T02:24:53;16.10;1.00
9410;DHT22;4744;52.576;13.568;2023-08-12T02:27:19;16.20;1.00
9410;DHT22;4744;52.576;13.568;2023-08-12T02:29:48;16.10;1.00
9410;DHT22;4744;52.576;13.568;2023-08-12T02:32:15;16.10;1.00
9410;DHT22;4744;52.576;13.568;2023-08-12T02:34:41;16.10;1.00
9410;DHT22;4744;52.576;13.568;2023-08-12T02:37:08;16.10;1.00
9410;DHT22;4744;52.576;13.568;2023-08-12T02:39:35;16.10;1.00
9410;DHT22;4744;52.576;13.568;2023-08-12T02:42:02;16.10;1.00
9410;DHT22;4744;52.576;13.568;2023-08-12T02:44:29;16.10;1.00
9410;DHT22;4744;52.576;13.568;2023-08-12T02:46:58;16.10;1.00
9410;DHT22;4744;52.576;13.568;2023-08-12T02:49:25;16.10;1.00
9410;DHT22;4744;52.576;13.568;2023-08-12T02:51:52;16.10;1.00
9410;DHT22;4744;52.576;13.568;2023-08-12T02:54:18;16.10;1.00
9410;DHT22;4744;52.576;13.568;2023-08-12T02:56:45;16.10;1.00
9410;DHT22;4744;52.576;13.568;2023-08-12T02:59:12;16.10;1.00
9410;DHT22;4744;52.576;13.568;2023-08-12T03:01:41;16.10;1.00
9410;DHT22;4744;52.576;13.568;2023-08-12T03:04:09;16.10;1.00
9410;DHT22;4744;52.576;13.568;2023-08-12T03:06:36;16.10;1.00
9410;DHT22;4744;52.576;13.568;2023-08-12T03:09:03;16.10;1.00
9410;DHT22;4744;52.576;13.568;2023-08-12T03:11:30;16.10;1.00
9410;DHT22;4744;52.576;13.568;2023-08-12T03:13:57;16.10;1.00
9410;DHT22;4744;52.576;13.568;2023-08-12T03:16:24;16.10;1.00
9410;DHT22;4744;52.576;13.568;2023-08-12T03:18:51;16.00;1.00
9410;DHT22;4744;52.576;13.568;2023-08-12T03:21:19;16.10;1.00
9410;DHT22;4744;52.576;13.568;2023-08-12T03:23:46;16.10;1.00
9410;DHT22;4744;52.576;13.568;2023-08-12T03:26:13;16.10;1.00
9410;DHT22;4744;52.576;13.568;2023-08-12T03:28:40;16.00;1.00
9410;DHT22;4744;52.576;13.568;2023-08-12T03:31:06;16.00;1.00
9410;DHT22;4744;52.576;13.568;2023-08-12T03:33:33;16.00;1.00
9410;DHT22;4744;52.576;13.568;2023-08-12T03:36:00;16.00;1.00
9410;DHT22;4744;52.576;13.568;2023-08-12T03:38:28;16.00;1.00
9410;DHT22;4744;52.576;13.568;2023-08-12T03:40:55;16.00;1.00
9410;DHT22;4744;52.576;13.568;2023-08-12T03:43:22;16.00;1.00
9410;DHT22;4744;52.576;13.568;2023-08-12T03:45:49;16.00;1.00
9410;DHT22;4744;52.576;13.568;2023-08-12T03:48:16;15.90;1.00
9410;DHT22;4744;52.576;13.568;2023-08-12T03:50:43;15.90;1.00
9410;DHT22;4744;52.576;13.568;2023-08-12T03:53:12;15.90;1.00
9410;DHT22;4744;52.576;13.568;2023-08-12T03:55:41;15.90;1.00
9410;DHT22;4744;52.576;13.568;2023-08-12T03:58:08;15.90;1.00
9410;DHT22;4744;52.576;13.568;2023-08-12T04:00:35;15.80;1.00
9410;DHT22;4744;52.576;13.568;2023-08-12T04:03:02;15.80;1.00
9410;DHT22;4744;52.576;13.568;2023-08-12T04:05:29;15.80;1.00
9410;DHT22;4744;52.576;13.568;2023-08-12T04:07:55;15.80;1.00
9410;DHT22;4744;52.576;13.568;2023-08-12T04:10:22;15.80;1.00
9410;DHT22;4744;52.576;13.568;2023-08-12T04:12:51;15.80;1.00
9410;DHT22;4744;52.576;13.568;2023-08-12T04:15:18;15.80;1.00
9410;DHT22;4744;52.576;13.568;2023-08-12T04:17:45;15.80;1.00
9410;DHT22;4744;52.576;13.568;2023-08-12T04:20:12;15.80;1.00
9410;DHT22;4744;52.576;13.568;2023-08-12T04:22:39;15.80;1.00
9410;DHT22;4744;52.576;13.568;2023-08-12T04:25:06;15.80;1.00
9410;DHT22;4744;52.576;13.568;2023-08-12T04:27:33;15.80;1.00
9410;DHT22;4744;52.576;13.568;2023-08-12T04:30:02;15.80;1.00
9410;DHT22;4744;52.576;13.568;2023-08-12T04:32:29;15.90;1.00
9410;DHT22;4744;52.576;13.568;2023-08-12T04:34:56;15.90;1.00
9410;DHT22;4744;52.576;13.568;2023-08-12T04:37:23;15.90;1.00
9410;DHT22;4744;52.576;13.568;2023-08-12T04:39:50;16.00;1.00
9410;DHT22;4744;52.576;13.568;2023-08-12T04:42:17;16.00;1.00
9410;DHT22;4744;52.576;13.568;2023-08-12T04:44:43;16.10;1.00
9410;DHT22;4744;52.576;13.568;2023-08-12T04:47:12;16.10;1.00
9410;DHT22;4744;52.576;13.568;2023-08-12T04:49:39;16.20;1.00
9410;DHT22;4744;52.576;13.568;2023-08-12T04:52:06;16.30;1.00
9410;DHT22;4744;52.576;13.568;2023-08-12T04:54:33;16.40;1.00
9410;DHT22;4744;52.576;13.568;2023-08-12T04:57:00;16.40;1.00
9410;DHT22;4744;52.576;13.568;2023-08-12T04:59:27;16.50;1.00
9410;DHT22;4744;52.576;13.568;2023-08-12T05:01:54;16.60;1.00
9410;DHT22;4744;52.576;13.568;2023-08-12T05:04:22;16.70;1.00
9410;DHT22;4744;52.576;13.568;2023-08-12T05:06:49;16.80;1.00
9410;DHT22;4744;52.576;13.568;2023-08-12T05:09:16;16.90;1.00
9410;DHT22;4744;52.576;13.568;2023-08-12T05:11:43;17.00;1.00
9410;DHT22;4744;52.576;13.568;2023-08-12T05:14:10;17.10;1.00
9410;DHT22;4744;52.576;13.568;2023-08-12T05:16:37;17.20;1.00
9410;DHT22;4744;52.576;13.568;2023-08-12T05:19:04;17.30;1.00
9410;DHT22;4744;52.576;13.568;2023-08-12T05:21:32;17.40;1.00
9410;DHT22;4744;52.576;13.568;2023-08-12T05:23:59;17.50;1.00
9410;DHT22;4744;52.576;13.568;2023-08-12T05:26:26;17.60;1.00
9410;DHT22;4744;52.576;13.568;2023-08-12T05:28:52;17.60;1.00
9410;DHT22;4744;52.576;13.568;2023-08-12T05:31:19;17.80;1.00
9410;DHT22;4744;52.576;13.568;2023-08-12T05:33:46;17.90;1.00
9410;DHT22;4744;52.576;13.568;2023-08-12T05:36:13;18.10;1.00
9410;DHT22;4744;52.576;13.568;2023-08-12T05:38:41;18.30;1.00
9410;DHT22;4744;52.576;13.568;2023-08-12T05:41:08;18.40;1.00
9410;DHT22;4744;52.576;13.568;2023-08-12T05:43:35;18.50;1.00
9410;DHT22;4744;52.576;13.568;2023-08-12T05:46:02;18.70;1.00
9410;DHT22;4744;52.576;13.568;2023-08-12T05:48:29;18.90;1.00
9410;DHT22;4744;52.576;13.568;2023-08-12T05:50:56;19.10;1.00
9410;DHT22;4744;52.576;13.568;2023-08-12T05:53:23;19.30;1.00
9410;DHT22;4744;52.576;13.568;2023-08-12T05:55:51;19.40;1.00
9410;DHT22;4744;52.576;13.568;2023-08-12T05:58:18;19.60;1.00
9410;DHT22;4744;52.576;13.568;2023-08-12T06:00:46;19.70;1.00
9410;DHT22;4744;52.576;13.568;2023-08-12T06:03:13;19.90;1.00
9410;DHT22;4744;52.576;13.568;2023-08-12T06:05:40;20.00;1.00
9410;DHT22;4744;52.576;13.568;2023-08-12T06:08:07;20.10;1.00
9410;DHT22;4744;52.576;13.568;2023-08-12T06:10:34;20.10;1.00
9410;DHT22;4744;52.576;13.568;2023-08-12T06:13:03;20.20;1.00
9410;DHT22;4744;52.576;13.568;2023-08-12T06:15:30;20.20;1.00
9410;DHT22;4744;52.576;13.568;2023-08-12T06:17:57;20.20;1.00
9410;DHT22;4744;52.576;13.568;2023-08-12T06:20:24;20.20;1.00
9410;DHT22;4744;52.576;13.568;2023-08-12T06:22:51;20.20;1.00
9410;DHT22;4744;52.576;13.568;2023-08-12T06:25:19;20.30;1.00
9410;DHT22;4744;52.576;13.568;2023-08-12T06:27:46;20.30;1.00
9410;DHT22;4744;52.576;13.568;2023-08-12T06:30:15;20.30;1.00
9410;DHT22;4744;52.576;13.568;2023-08-12T06:32:41;20.40;1.00
9410;DHT22;4744;52.576;13.568;2023-08-12T06:35:08;20.50;1.00
9410;DHT22;4744;52.576;13.568;2023-08-12T06:37:35;20.50;1.00
9410;DHT22;4744;52.576;13.568;2023-08-12T06:40:04;20.60;1.00
9410;DHT22;4744;52.576;13.568;2023-08-12T06:42:31;20.60;1.00
9410;DHT22;4744;52.576;13.568;2023-08-12T06:44:58;20.70;1.00
9410;DHT22;4744;52.576;13.568;2023-08-12T06:47:27;20.60;1.00
9410;DHT22;4744;52.576;13.568;2023-08-12T06:49:55;20.70;1.00
9410;DHT22;4744;52.576;13.568;2023-08-12T06:52:22;20.80;1.00
9410;DHT22;4744;52.576;13.568;2023-08-12T06:54:49;20.90;1.00
9410;DHT22;4744;52.576;13.568;2023-08-12T06:57:16;21.00;1.00
9410;DHT22;4744;52.576;13.568;2023-08-12T06:59:43;21.00;1.00
9410;DHT22;4744;52.576;13.568;2023-08-12T07:02:09;21.10;1.00
9410;DHT22;4744;52.576;13.568;2023-08-12T07:04:38;21.20;1.00
9410;DHT22;4744;52.576;13.568;2023-08-12T07:07:05;21.30;1.00
9410;DHT22;4744;52.576;13.568;2023-08-12T07:09:32;21.30;1.00
9410;DHT22;4744;52.576;13.568;2023-08-12T07:11:58;21.40;1.00
9410;DHT22;4744;52.576;13.568;2023-08-12T07:14:27;21.50;1.00
9410;DHT22;4744;52.576;13.568;2023-08-12T07:16:54;21.60;1.00
9410;DHT22;4744;52.576;13.568;2023-08-12T07:19:21;21.70;1.00
9410;DHT22;4744;52.576;13.568;2023-08-12T07:21:49;21.80;1.00
9410;DHT22;4744;52.576;13.568;2023-08-12T07:24:16;21.90;1.00
9410;DHT22;4744;52.576;13.568;2023-08-12T07:26:43;22.00;1.00
9410;DHT22;4744;52.576;13.568;2023-08-12T07:29:10;22.10;1.00
9410;DHT22;4744;52.576;13.568;2023-08-12T07:31:37;22.20;1.00
9410;DHT22;4744;52.576;13.568;2023-08-12T07:34:04;22.30;1.00
9410;DHT22;4744;52.576;13.568;2023-08-12T07:36:31;22.30;1.00
9410;DHT22;4744;52.576;13.568;2023-08-12T07:38:59;22.30;1.00
9410;DHT22;4744;52.576;13.568;2023-08-12T07:41:26;22.40;1.00
9410;DHT22;4744;52.576;13.568;2023-08-12T07:43:53;22.40;1.00
9410;DHT22;4744;52.576;13.568;2023-08-12T07:46:20;22.40;1.00
9410;DHT22;4744;52.576;13.568;2023-08-12T07:48:47;22.40;1.00
9410;DHT22;4744;52.576;13.568;2023-08-12T07:51:14;22.50;1.00
9410;DHT22;4744;52.576;13.568;2023-08-12T07:53:41;22.50;1.00
9410;DHT22;4744;52.576;13.568;2023-08-12T07:56:09;22.50;1.00
9410;DHT22;4744;52.576;13.568;2023-08-12T07:58:36;22.60;1.00
9410;DHT22;4744;52.576;13.568;2023-08-12T08:01:03;22.70;1.00
9410;DHT22;4744;52.576;13.568;2023-08-12T08:03:30;22.70;1.00
9410;DHT22;4744;52.576;13.568;2023-08-12T08:05:57;22.80;1.00
9410;DHT22;4744;52.576;13.568;2023-08-12T08:08:24;22.80;1.00
9410;DHT22;4744;52.576;13.568;2023-08-12T08:10:51;22.80;1.00
9410;DHT22;4744;52.576;13.568;2023-08-12T08:13:19;22.80;1.00
9410;DHT22;4744;52.576;13.568;2023-08-12T08:15:46;22.90;1.00
9410;DHT22;4744;52.576;13.568;2023-08-12T08:18:13;22.90;1.00
9410;DHT22;4744;52.576;13.568;2023-08-12T08:20:41;23.00;1.00
9410;DHT22;4744;52.576;13.568;2023-08-12T08:23:08;23.10;1.00
9410;DHT22;4744;52.576;13.568;2023-08-12T08:25:35;23.20;1.00
9410;DHT22;4744;52.576;13.568;2023-08-12T08:28:03;23.30;1.00
9410;DHT22;4744;52.576;13.568;2023-08-12T08:30:31;23.30;1.00
9410;DHT22;4744;52.576;13.568;2023-08-12T08:32:58;23.30;1.00
9410;DHT22;4744;52.576;13.568;2023-08-12T08:35:25;23.30;1.00
9410;DHT22;4744;52.576;13.568;2023-08-12T08:37:52;23.30;1.00
9410;DHT22;4744;52.576;13.568;2023-08-12T08:40:19;23.30;1.00
9410;DHT22;4744;52.576;13.568;2023-08-12T08:42:47;23.20;1.00
9410;DHT22;4744;52.576;13.568;2023-08-12T08:45:18;23.20;1.00
9410;DHT22;4744;52.576;13.568;2023-08-12T08:47:47;23.10;1.00
9410;DHT22;4744;52.576;13.568;2023-08-12T08:50:14;23.00;1.00
9410;DHT22;4744;52.576;13.568;2023-08-12T08:52:41;23.00;1.00
9410;DHT22;4744;52.576;13.568;2023-08-12T08:55:09;22.90;1.00
9410;DHT22;4744;52.576;13.568;2023-08-12T08:57:37;22.80;1.00
9410;DHT22;4744;52.576;13.568;2023-08-12T09:00:05;22.80;1.00
9410;DHT22;4744;52.576;13.568;2023-08-12T09:02:33;22.70;1.00
9410;DHT22;4744;52.576;13.568;2023-08-12T09:05:05;22.70;1.00
9410;DHT22;4744;52.576;13.568;2023-08-12T09:07:32;22.60;1.00
9410;DHT22;4744;52.576;13.568;2023-08-12T09:10:01;22.60;1.00
9410;DHT22;4744;52.576;13.568;2023-08-12T09:12:30;22.60;1.00
9410;DHT22;4744;52.576;13.568;2023-08-12T09:14:58;22.60;1.00
9410;DHT22;4744;52.576;13.568;2023-08-12T09:17:25;22.60;1.00
9410;DHT22;4744;52.576;13.568;2023-08-12T09:19:51;22.60;1.00
9410;DHT22;4744;52.576;13.568;2023-08-12T09:22:20;22.70;1.00
9410;DHT22;4744;52.576;13.568;2023-08-12T09:24:50;22.70;1.00
9410;DHT22;4744;52.576;13.568;2023-08-12T09:27:18;22.80;1.00
9410;DHT22;4744;52.576;13.568;2023-08-12T09:29:45;22.90;1.00
9410;DHT22;4744;52.576;13.568;2023-08-12T09:32:13;22.90;1.00
9410;DHT22;4744;52.576;13.568;2023-08-12T09:34:47;23.00;1.00
9410;DHT22;4744;52.576;13.568;2023-08-12T09:37:14;23.00;1.00
9410;DHT22;4744;52.576;13.568;2023-08-12T09:39:43;23.10;1.00
9410;DHT22;4744;52.576;13.568;2023-08-12T09:42:11;23.30;1.00
9410;DHT22;4744;52.576;13.568;2023-08-12T09:44:38;23.40;1.00
9410;DHT22;4744;52.576;13.568;2023-08-12T09:47:06;23.60;1.00
9410;DHT22;4744;52.576;13.568;2023-08-12T09:49:34;23.80;1.00
9410;DHT22;4744;52.576;13.568;2023-08-12T09:52:02;24.10;1.00
9410;DHT22;4744;52.576;13.568;2023-08-12T09:54:31;24.20;1.00
9410;DHT22;4744;52.576;13.568;2023-08-12T09:57:01;24.50;1.00
9410;DHT22;4744;52.576;13.568;2023-08-12T09:59:30;24.60;1.00
9410;DHT22;4744;52.576;13.568;2023-08-12T10:01:58;24.50;1.00
9410;DHT22;4744;52.576;13.568;2023-08-12T10:04:28;24.50;1.00
9410;DHT22;4744;52.576;13.568;2023-08-12T10:06:56;24.50;1.00
9410;DHT22;4744;52.576;13.568;2023-08-12T10:09:23;24.50;1.00
9410;DHT22;4744;52.576;13.568;2023-08-12T10:11:51;24.40;1.00
9410;DHT22;4744;52.576;13.568;2023-08-12T10:14:20;24.40;1.00
9410;DHT22;4744;52.576;13.568;2023-08-12T10:16:47;24.50;1.00
9410;DHT22;4744;52.576;13.568;2023-08-12T10:19:16;24.50;1.00
9410;DHT22;4744;52.576;13.568;2023-08-12T10:21:44;24.50;1.00
9410;DHT22;4744;52.576;13.568;2023-08-12T10:24:11;24.50;1.00
9410;DHT22;4744;52.576;13.568;2023-08-12T10:26:42;24.50;1.00
9410;DHT22;4744;52.576;13.568;2023-08-12T10:29:09;24.50;1.00
9410;DHT22;4744;52.576;13.568;2023-08-12T10:31:38;24.50;1.00
9410;DHT22;4744;52.576;13.568;2023-08-12T10:34:18;24.60;1.00
9410;DHT22;4744;52.576;13.568;2023-08-12T10:36:45;24.50;1.00
9410;DHT22;4744;52.576;13.568;2023-08-12T10:39:13;24.50;1.00
9410;DHT22;4744;52.576;13.568;2023-08-12T10:41:50;24.50;1.00
9410;DHT22;4744;52.576;13.568;2023-08-12T10:44:20;24.60;1.00
9410;DHT22;4744;52.576;13.568;2023-08-12T10:46:52;24.50;1.00
9410;DHT22;4744;52.576;13.568;2023-08-12T10:49:20;24.60;1.00
9410;DHT22;4744;52.576;13.568;2023-08-12T10:51:49;24.60;1.00
9410;DHT22;4744;52.576;13.568;2023-08-12T10:54:17;24.70;1.00
9410;DHT22;4744;52.576;13.568;2023-08-12T10:57:03;24.60;1.00
9410;DHT22;4744;52.576;13.568;2023-08-12T10:59:53;24.60;1.00
9410;DHT22;4744;52.576;13.568;2023-08-12T11:02:27;24.70;1.00
9410;DHT22;4744;52.576;13.568;2023-08-12T11:04:55;24.80;1.00
9410;DHT22;4744;52.576;13.568;2023-08-12T11:07:32;24.80;1.00
9410;DHT22;4744;52.576;13.568;2023-08-12T11:10:04;24.80;1.00
9410;DHT22;4744;52.576;13.568;2023-08-12T11:12:33;24.90;1.00
9410;DHT22;4744;52.576;13.568;2023-08-12T11:15:01;24.90;1.00
9410;DHT22;4744;52.576;13.568;2023-08-12T11:17:32;25.10;1.00
9410;DHT22;4744;52.576;13.568;2023-08-12T11:20:00;25.10;1.00
9410;DHT22;4744;52.576;13.568;2023-08-12T11:22:30;25.10;1.00
9410;DHT22;4744;52.576;13.568;2023-08-12T11:24:57;25.20;1.00
9410;DHT22;4744;52.576;13.568;2023-08-12T11:27:24;25.20;1.00
9410;DHT22;4744;52.576;13.568;2023-08-12T11:29:51;25.20;1.00
9410;DHT22;4744;52.576;13.568;2023-08-12T11:32:18;25.20;1.00
9410;DHT22;4744;52.576;13.568;2023-08-12T11:34:47;25.20;1.00
9410;DHT22;4744;52.576;13.568;2023-08-12T11:37:14;25.20;1.00
9410;DHT22;4744;52.576;13.568;2023-08-12T11:39:41;25.40;1.00
9410;DHT22;4744;52.576;13.568;2023-08-12T11:42:08;25.30;1.00
9410;DHT22;4744;52.576;13.568;2023-08-12T11:44:35;25.30;1.00
9410;DHT22;4744;52.576;13.568;2023-08-12T11:47:01;25.20;1.00
9410;DHT22;4744;52.576;13.568;2023-08-12T11:49:28;25.20;1.00
9410;DHT22;4744;52.576;13.568;2023-08-12T11:51:57;25.20;1.00
9410;DHT22;4744;52.576;13.568;2023-08-12T11:54:24;25.20;1.00
9410;DHT22;4744;52.576;13.568;2023-08-12T11:56:51;25.20;1.00
9410;DHT22;4744;52.576;13.568;2023-08-12T11:59:21;25.30;1.00
9410;DHT22;4744;52.576;13.568;2023-08-12T12:01:48;25.30;1.00
9410;DHT22;4744;52.576;13.568;2023-08-12T12:04:15;25.30;1.00
9410;DHT22;4744;52.576;13.568;2023-08-12T12:06:45;25.20;1.00
9410;DHT22;4744;52.576;13.568;2023-08-12T12:09:14;25.20;1.00
9410;DHT22;4744;52.576;13.568;2023-08-12T12:11:44;25.20;1.00
9410;DHT22;4744;52.576;13.568;2023-08-12T12:14:11;25.30;1.00
9410;DHT22;4744;52.576;13.568;2023-08-12T12:16:40;25.30;1.00
9410;DHT22;4744;52.576;13.568;2023-08-12T12:19:09;25.30;1.00
9410;DHT22;4744;52.576;13.568;2023-08-12T12:21:40;25.40;1.00
9410;DHT22;4744;52.576;13.568;2023-08-12T12:24:07;25.40;1.00
9410;DHT22;4744;52.576;13.568;2023-08-12T12:26:36;25.40;1.00
9410;DHT22;4744;52.576;13.568;2023-08-12T12:29:03;25.40;1.00
9410;DHT22;4744;52.576;13.568;2023-08-12T12:31:32;25.30;1.00
9410;DHT22;4744;52.576;13.568;2023-08-12T12:33:59;25.30;1.00
9410;DHT22;4744;52.576;13.568;2023-08-12T12:36:26;25.20;1.00
9410;DHT22;4744;52.576;13.568;2023-08-12T12:38:53;25.20;1.00
9410;DHT22;4744;52.576;13.568;2023-08-12T12:41:20;25.10;1.00
9410;DHT22;4744;52.576;13.568;2023-08-12T12:43:48;25.10;1.00
9410;DHT22;4744;52.576;13.568;2023-08-12T12:46:16;25.00;1.00
9410;DHT22;4744;52.576;13.568;2023-08-12T12:48:43;25.00;1.00
9410;DHT22;4744;52.576;13.568;2023-08-12T12:51:10;24.80;1.00
9410;DHT22;4744;52.576;13.568;2023-08-12T12:53:37;24.70;1.00
9410;DHT22;4744;52.576;13.568;2023-08-12T12:56:04;24.60;1.00
9410;DHT22;4744;52.576;13.568;2023-08-12T12:58:32;24.50;1.00
9410;DHT22;4744;52.576;13.568;2023-08-12T13:01:01;24.50;1.00
9410;DHT22;4744;52.576;13.568;2023-08-12T13:03:28;24.50;1.00
9410;DHT22;4744;52.576;13.568;2023-08-12T13:05:56;24.50;1.00
9410;DHT22;4744;52.576;13.568;2023-08-12T13:08:23;24.50;1.00
9410;DHT22;4744;52.576;13.568;2023-08-12T13:10:50;24.60;1.00
9410;DHT22;4744;52.576;13.568;2023-08-12T13:13:18;24.70;1.00
9410;DHT22;4744;52.576;13.568;2023-08-12T13:15:46;24.80;1.00
9410;DHT22;4744;52.576;13.568;2023-08-12T13:18:15;25.00;1.00
9410;DHT22;4744;52.576;13.568;2023-08-12T13:20:42;25.10;1.00
9410;DHT22;4744;52.576;13.568;2023-08-12T13:23:09;25.20;1.00
9410;DHT22;4744;52.576;13.568;2023-08-12T13:25:35;25.30;1.00
9410;DHT22;4744;52.576;13.568;2023-08-12T13:28:03;25.30;1.00
9410;DHT22;4744;52.576;13.568;2023-08-12T13:30:30;25.40;1.00
9410;DHT22;4744;52.576;13.568;2023-08-12T13:32:57;25.50;1.00
9410;DHT22;4744;52.576;13.568;2023-08-12T13:35:25;25.60;1.00
9410;DHT22;4744;52.576;13.568;2023-08-12T13:37:52;25.70;1.00
9410;DHT22;4744;52.576;13.568;2023-08-12T13:40:19;25.70;1.00
9410;DHT22;4744;52.576;13.568;2023-08-12T13:42:46;25.80;1.00
9410;DHT22;4744;52.576;13.568;2023-08-12T13:45:13;25.80;1.00
9410;DHT22;4744;52.576;13.568;2023-08-12T13:47:40;26.00;1.00
9410;DHT22;4744;52.576;13.568;2023-08-12T13:50:08;26.10;1.00
9410;DHT22;4744;52.576;13.568;2023-08-12T13:52:36;26.30;1.00
9410;DHT22;4744;52.576;13.568;2023-08-12T13:55:04;26.40;1.00
9410;DHT22;4744;52.576;13.568;2023-08-12T13:57:31;26.60;1.00
9410;DHT22;4744;52.576;13.568;2023-08-12T13:59:58;26.60;1.00
9410;DHT22;4744;52.576;13.568;2023-08-12T14:02:25;26.60;1.00
9410;DHT22;4744;52.576;13.568;2023-08-12T14:04:52;26.60;1.00
9410;DHT22;4744;52.576;13.568;2023-08-12T14:07:19;26.70;1.00
9410;DHT22;4744;52.576;13.568;2023-08-12T14:09:48;26.80;1.00
9410;DHT22;4744;52.576;13.568;2023-08-12T14:12:15;26.90;1.00
9410;DHT22;4744;52.576;13.568;2023-08-12T14:14:42;27.00;1.00
9410;DHT22;4744;52.576;13.568;2023-08-12T14:17:08;27.00;1.00
9410;DHT22;4744;52.576;13.568;2023-08-12T14:19:39;27.20;1.00
9410;DHT22;4744;52.576;13.568;2023-08-12T14:22:07;27.10;1.00
9410;DHT22;4744;52.576;13.568;2023-08-12T14:24:34;27.10;1.00
9410;DHT22;4744;52.576;13.568;2023-08-12T14:27:02;27.00;1.00
9410;DHT22;4744;52.576;13.568;2023-08-12T14:29:29;26.90;1.00
9410;DHT22;4744;52.576;13.568;2023-08-12T14:31:57;26.90;1.00
9410;DHT22;4744;52.576;13.568;2023-08-12T14:34:24;26.90;1.00
9410;DHT22;4744;52.576;13.568;2023-08-12T14:36:50;26.90;1.00
9410;DHT22;4744;52.576;13.568;2023-08-12T14:39:17;27.00;1.00
9410;DHT22;4744;52.576;13.568;2023-08-12T14:41:44;27.10;1.00
9410;DHT22;4744;52.576;13.568;2023-08-12T14:44:14;27.10;1.00
9410;DHT22;4744;52.576;13.568;2023-08-12T14:46:41;27.10;1.00
9410;DHT22;4744;52.576;13.568;2023-08-12T14:49:09;27.10;1.00
9410;DHT22;4744;52.576;13.568;2023-08-12T14:51:36;27.20;1.00
9410;DHT22;4744;52.576;13.568;2023-08-12T14:54:03;27.20;1.00
9410;DHT22;4744;52.576;13.568;2023-08-12T14:56:30;27.20;1.00
9410;DHT22;4744;52.576;13.568;2023-08-12T14:58:57;27.20;1.00
9410;DHT22;4744;52.576;13.568;2023-08-12T15:01:25;27.10;1.00
9410;DHT22;4744;52.576;13.568;2023-08-12T15:03:53;27.00;1.00
9410;DHT22;4744;52.576;13.568;2023-08-12T15:06:21;27.00;1.00
9410;DHT22;4744;52.576;13.568;2023-08-12T15:08:48;27.10;1.00
9410;DHT22;4744;52.576;13.568;2023-08-12T15:11:16;27.10;1.00
9410;DHT22;4744;52.576;13.568;2023-08-12T15:13:42;27.20;1.00
9410;DHT22;4744;52.576;13.568;2023-08-12T15:16:10;27.20;1.00
9410;DHT22;4744;52.576;13.568;2023-08-12T15:18:39;27.40;1.00
9410;DHT22;4744;52.576;13.568;2023-08-12T15:21:08;27.50;1.00
9410;DHT22;4744;52.576;13.568;2023-08-12T15:23:35;27.40;1.00
9410;DHT22;4744;52.576;13.568;2023-08-12T15:26:02;27.40;1.00
9410;DHT22;4744;52.576;13.568;2023-08-12T15:28:30;27.20;1.00
9410;DHT22;4744;52.576;13.568;2023-08-12T15:30:57;27.20;1.00
9410;DHT22;4744;52.576;13.568;2023-08-12T15:33:23;27.00;1.00
9410;DHT22;4744;52.576;13.568;2023-08-12T15:35:52;26.90;1.00
9410;DHT22;4744;52.576;13.568;2023-08-12T15:38:18;26.90;1.00
9410;DHT22;4744;52.576;13.568;2023-08-12T15:40:45;26.80;1.00
9410;DHT22;4744;52.576;13.568;2023-08-12T15:43:12;26.80;1.00
9410;DHT22;4744;52.576;13.568;2023-08-12T15:45:39;26.80;1.00
9410;DHT22;4744;52.576;13.568;2023-08-12T15:48:08;26.80;1.00
9410;DHT22;4744;52.576;13.568;2023-08-12T15:50:35;26.80;1.00
9410;DHT22;4744;52.576;13.568;2023-08-12T15:53:03;26.80;1.00
9410;DHT22;4744;52.576;13.568;2023-08-12T15:55:30;26.90;1.00
9410;DHT22;4744;52.576;13.568;2023-08-12T15:57:57;26.90;1.00
9410;DHT22;4744;52.576;13.568;2023-08-12T16:00:24;26.90;1.00
9410;DHT22;4744;52.576;13.568;2023-08-12T16:02:51;26.90;1.00
9410;DHT22;4744;52.576;13.568;2023-08-12T16:05:18;26.80;1.00